Terminal Aerodrome Forecast
Issued by NWS

Home | Current Version | Previous Version | Graphics & Text | Print | Product List | Glossary On
Versions: 1 2 3 4 5 6 7 8 9 10 11 12 13 14 15 16 17 18 19
000
FTUS43 KMPX 181531 AAA
TAFRNH
TAF AMD
KRNH 181531Z 1816/1912 28004KT P6SM BKN200
     FM182000 29007KT P6SM VCSH SCT050 BKN150
     FM190100 VRB02KT P6SM SCT100
     FM190700 00000KT 3SM BR SKC
     FM191000 00000KT 3/4SM BR SCT002=

USA.gov is the U.S. government's official web portal to all federal, state and local government web resources and services.